Airport View

Enter ICAO identifier to see the current METAR for that AWOS.

KFNL for example

KGTF 310653Z 35006KT 10SM CLR 18/07 A3014

31 Jul 2014 07:22

Phone: 406-452-9844

Other Area AWOS: KGFA - K79S - KHLN - KCTB

TAF KGTF 310520Z 3106/0106 22005KT P6SM SKC